Time;durP1;ratioP1;P1;durP2;ratioP2;P2;SDS_P1;SDS_P2;PMS_P1;PMS_P2;Temp;Humidity;BMP_temperature;BMP_pressure;BME280_temperature;BME280_humidity;BME280_pressure;Samples;Min_cycle;Max_cycle;Signal;HPM_P1;HPM_P2
2021/05/26 00:00:00;;;;;;;4.50;1.40;;;11.00;59.70;;;;;;5019228;28;20108;-65
2021/05/26 00:02:26;;;;;;;3.92;1.98;;;10.90;59.60;;;;;;5033501;28;20475;-66
2021/05/26 00:04:52;;;;;;;4.57;1.58;;;10.90;59.50;;;;;;5034337;28;20040;-65
2021/05/26 00:07:18;;;;;;;3.55;1.65;;;10.90;59.50;;;;;;5034337;28;20052;-65
2021/05/26 00:09:44;;;;;;;5.80;2.00;;;10.90;59.50;;;;;;5031727;28;20034;-66
2021/05/26 00:12:11;;;;;;;5.18;1.70;;;10.80;59.40;;;;;;5016873;28;20124;-66
2021/05/26 00:14:37;;;;;;;3.75;1.73;;;10.90;59.60;;;;;;5025994;28;20076;-65
2021/05/26 00:17:04;;;;;;;5.15;2.03;;;10.80;59.50;;;;;;5014330;28;20026;-65
2021/05/26 00:19:30;;;;;;;6.20;1.50;;;10.80;59.70;;;;;;5014286;28;20026;-66
2021/05/26 00:21:56;;;;;;;3.38;1.52;;;10.80;59.60;;;;;;5028925;28;20048;-65
2021/05/26 00:24:21;;;;;;;3.22;1.48;;;10.80;59.60;;;;;;5014239;28;20092;-66
2021/05/26 00:26:47;;;;;;;5.78;1.20;;;10.80;59.60;;;;;;5032297;28;20037;-65
2021/05/26 00:29:14;;;;;;;2.90;1.10;;;10.70;59.50;;;;;;5032171;28;20021;-65
2021/05/26 00:31:40;;;;;;;9.75;1.70;;;10.70;59.50;;;;;;5034045;28;20032;-65
2021/05/26 00:34:07;;;;;;;3.67;1.45;;;10.70;59.50;;;;;;5024023;28;20052;-65
2021/05/26 00:36:32;;;;;;;2.25;1.42;;;10.60;59.40;;;;;;5022441;28;20025;-68
2021/05/26 00:38:58;;;;;;;4.30;1.58;;;10.60;59.60;;;;;;5015319;28;20365;-66
2021/05/26 00:41:31;;;;;;;3.65;1.75;;;10.60;59.60;;;;;;5014101;28;20026;-65
2021/05/26 00:43:57;;;;;;;4.20;1.75;;;10.60;59.70;;;;;;5012879;28;20054;-66
2021/05/26 00:46:23;;;;;;;5.63;2.08;;;10.60;59.60;;;;;;5014018;28;20474;-65
2021/05/26 00:48:49;;;;;;;3.28;1.75;;;10.50;59.60;;;;;;5029229;28;20420;-65
2021/05/26 00:51:15;;;;;;;3.03;1.75;;;10.50;59.80;;;;;;5033792;28;20541;-66
2021/05/26 00:53:41;;;;;;;2.38;1.45;;;10.50;60.70;;;;;;5032643;28;20045;-65
2021/05/26 00:56:07;;;;;;;5.28;2.17;;;10.50;60.10;;;;;;5033729;28;20040;-65
2021/05/26 00:58:33;;;;;;;2.70;1.40;;;10.50;60.20;;;;;;5033904;28;20021;-65
2021/05/26 01:00:59;;;;;;;8.30;2.58;;;10.50;60.20;;;;;;5016763;28;20033;-65
2021/05/26 01:03:26;;;;;;;4.85;1.75;;;10.50;60.40;;;;;;5013983;28;20038;-66
2021/05/26 01:05:52;;;;;;;3.35;1.70;;;10.40;60.80;;;;;;5014070;28;20030;-66
2021/05/26 01:08:18;;;;;;;2.88;1.40;;;10.40;60.90;;;;;;5013738;28;20563;-66
2021/05/26 01:10:43;;;;;;;4.05;1.98;;;10.40;60.80;;;;;;5028695;28;20026;-65
2021/05/26 01:13:10;;;;;;;6.85;1.80;;;10.40;60.70;;;;;;5021425;28;20033;-65
2021/05/26 01:15:37;;;;;;;4.75;1.70;;;10.40;60.80;;;;;;5013468;28;20026;-65
2021/05/26 01:18:21;;;;;;;3.80;1.35;;;10.40;60.70;;;;;;5013436;28;20024;-66
2021/05/26 01:20:47;;;;;;;3.17;1.55;;;10.40;60.80;;;;;;5013414;28;20386;-65
2021/05/26 01:23:16;;;;;;;4.00;1.80;;;10.40;61.30;;;;;;5013387;28;20037;-65
2021/05/26 01:25:51;;;;;;;1.65;1.10;;;10.40;60.50;;;;;;5030110;28;20112;-65
2021/05/26 01:28:18;;;;;;;3.67;1.60;;;10.30;60.40;;;;;;5033029;28;20032;-65
2021/05/26 01:30:44;;;;;;;7.00;1.60;;;10.40;60.40;;;;;;5033038;28;20459;-65
2021/05/26 01:33:10;;;;;;;2.30;1.13;;;10.30;60.30;;;;;;5028675;28;20080;-65
2021/05/26 01:35:41;;;;;;;2.50;1.48;;;10.30;60.50;;;;;;5032846;28;20096;-66
2021/05/26 01:38:11;;;;;;;2.38;1.20;;;10.30;60.50;;;;;;5025882;28;20045;-65
2021/05/26 01:40:36;;;;;;;2.53;1.23;;;10.30;60.40;;;;;;5032779;28;20028;-65
2021/05/26 01:43:03;;;;;;;3.90;1.38;;;10.30;60.40;;;;;;5023809;28;20113;-65
2021/05/26 01:45:29;;;;;;;2.33;1.38;;;10.20;60.40;;;;;;5013091;28;20025;-65
2021/05/26 01:47:55;;;;;;;5.95;1.35;;;10.20;60.40;;;;;;5011668;28;20383;-65
2021/05/26 01:50:24;;;;;;;2.42;1.25;;;10.10;60.30;;;;;;5013020;28;20030;-65
2021/05/26 01:52:52;;;;;;;2.95;1.38;;;10.10;60.30;;;;;;5012670;28;20049;-66
2021/05/26 01:55:18;;;;;;;2.40;1.35;;;10.10;60.30;;;;;;5019018;28;20022;-65
2021/05/26 01:57:45;;;;;;;4.95;1.38;;;10.10;60.50;;;;;;5029055;28;20120;-65
2021/05/26 02:00:13;;;;;;;11.18;1.92;;;10.10;60.60;;;;;;5032502;28;20028;-65
2021/05/26 02:02:39;;;;;;;4.00;1.48;;;10.10;61.00;;;;;;5031134;28;20454;-66
2021/05/26 02:05:08;;;;;;;6.88;1.65;;;10.10;61.30;;;;;;5031851;28;20057;-66
2021/05/26 02:07:35;;;;;;;13.00;1.95;;;10.00;61.50;;;;;;5025769;28;20026;-65
2021/05/26 02:10:00;;;;;;;5.07;1.92;;;10.10;61.70;;;;;;5029823;28;20091;-65
2021/05/26 02:12:32;;;;;;;7.22;1.77;;;10.00;61.70;;;;;;5012331;28;20022;-65
2021/05/26 02:14:59;;;;;;;6.85;1.70;;;10.00;61.70;;;;;;5012261;28;20029;-65
2021/05/26 02:17:25;;;;;;;3.33;1.98;;;10.00;61.50;;;;;;5012754;28;20022;-65
2021/05/26 02:19:51;;;;;;;2.88;1.38;;;10.00;61.50;;;;;;5013473;28;20028;-65
2021/05/26 02:22:17;;;;;;;7.03;1.60;;;10.00;61.30;;;;;;5015263;28;20049;-65
2021/05/26 02:24:45;;;;;;;4.65;1.55;;;10.00;61.20;;;;;;5011690;28;20041;-66
2021/05/26 02:27:10;;;;;;;5.28;1.67;;;10.00;61.20;;;;;;5012818;28;20478;-65
2021/05/26 02:29:37;;;;;;;3.15;1.35;;;10.00;61.20;;;;;;5012057;28;20084;-65
2021/05/26 02:32:04;;;;;;;4.15;1.40;;;9.90;61.10;;;;;;5012329;28;20034;-66
2021/05/26 02:34:31;;;;;;;2.63;1.40;;;9.90;61.10;;;;;;5013345;28;20040;-65
2021/05/26 02:36:57;;;;;;;9.27;1.42;;;9.90;61.10;;;;;;5012991;28;20025;-65
2021/05/26 02:39:23;;;;;;;2.28;1.50;;;9.90;61.20;;;;;;5012153;28;20396;-65
2021/05/26 02:41:48;;;;;;;3.03;1.65;;;9.90;61.30;;;;;;5013233;28;20450;-65
2021/05/26 02:44:14;;;;;;;4.15;1.23;;;9.90;61.20;;;;;;5013083;28;20409;-65
2021/05/26 02:46:40;;;;;;;4.20;1.23;;;9.90;61.20;;;;;;5016382;28;20080;-65
2021/05/26 02:49:06;;;;;;;4.32;1.42;;;9.90;61.40;;;;;;5013125;28;20025;-65
2021/05/26 02:51:33;;;;;;;3.00;1.50;;;9.90;61.40;;;;;;5012924;28;20026;-65
2021/05/26 02:53:59;;;;;;;4.40;1.63;;;9.90;61.50;;;;;;5013095;28;20026;-65
2021/05/26 02:56:25;;;;;;;3.83;1.70;;;9.90;61.70;;;;;;5012905;28;20067;-65
2021/05/26 02:58:51;;;;;;;6.72;1.75;;;9.90;61.90;;;;;;5013954;28;20375;-66
2021/05/26 03:01:17;;;;;;;6.50;2.70;;;9.90;62.00;;;;;;5012924;28;20024;-65
2021/05/26 03:03:43;;;;;;;3.38;1.65;;;9.90;62.10;;;;;;5013155;28;20379;-65
2021/05/26 03:06:09;;;;;;;2.90;1.23;;;9.90;62.00;;;;;;5013376;28;20072;-65
2021/05/26 03:08:34;;;;;;;4.28;1.70;;;9.90;61.80;;;;;;5013711;28;20054;-65
2021/05/26 03:11:00;;;;;;;5.68;1.63;;;9.90;61.80;;;;;;5016112;28;20545;-65
2021/05/26 03:13:26;;;;;;;2.13;1.30;;;9.90;61.80;;;;;;5013061;28;20033;-65
2021/05/26 03:15:53;;;;;;;3.90;1.73;;;9.90;61.70;;;;;;5013166;28;20360;-65
2021/05/26 03:18:19;;;;;;;14.45;2.80;;;9.90;61.60;;;;;;5016806;28;20025;-65
2021/05/26 03:20:45;;;;;;;3.70;1.65;;;9.90;61.60;;;;;;5016707;28;20468;-65
2021/05/26 03:23:12;;;;;;;7.72;1.95;;;9.90;61.60;;;;;;5016776;28;20041;-65
2021/05/26 03:25:38;;;;;;;5.78;1.90;;;9.90;61.50;;;;;;5016669;28;20104;-65
2021/05/26 03:28:04;;;;;;;4.15;1.80;;;9.90;61.50;;;;;;5016622;28;20061;-65
2021/05/26 03:30:30;;;;;;;8.13;1.85;;;9.90;61.60;;;;;;5016715;28;20383;-65
2021/05/26 03:32:57;;;;;;;8.90;2.95;;;9.90;61.60;;;;;;5016510;28;20030;-65
2021/05/26 03:35:22;;;;;;;3.92;1.85;;;9.90;61.60;;;;;;5016833;28;20020;-66
2021/05/26 03:37:48;;;;;;;3.55;1.65;;;9.90;61.60;;;;;;5015363;28;20105;-66
2021/05/26 03:40:15;;;;;;;7.53;2.20;;;9.90;61.60;;;;;;5016402;28;20026;-65
2021/05/26 03:42:42;;;;;;;3.58;1.90;;;9.90;61.80;;;;;;5016238;28;20025;-65
2021/05/26 03:45:09;;;;;;;4.05;1.83;;;9.90;61.80;;;;;;5016417;28;20033;-65
2021/05/26 03:47:36;;;;;;;2.88;1.73;;;9.90;61.80;;;;;;5016417;28;20022;-65
2021/05/26 03:50:03;;;;;;;4.20;1.83;;;9.90;61.70;;;;;;5016262;28;20466;-65
2021/05/26 03:52:28;;;;;;;5.25;1.90;;;9.90;61.70;;;;;;5015887;28;20038;-65
2021/05/26 03:54:54;;;;;;;4.47;1.90;;;9.90;61.70;;;;;;5016290;28;20025;-65
2021/05/26 03:57:20;;;;;;;8.25;2.22;;;9.90;61.80;;;;;;5016072;28;20125;-65
2021/05/26 03:59:46;;;;;;;4.75;2.25;;;9.90;61.70;;;;;;5015910;28;20112;-65
2021/05/26 04:02:12;;;;;;;4.35;1.92;;;9.90;61.70;;;;;;5015795;28;20091;-65
2021/05/26 04:04:39;;;;;;;5.13;1.92;;;9.90;61.80;;;;;;5016011;28;20037;-65
2021/05/26 04:07:05;;;;;;;3.58;2.00;;;10.00;62.00;;;;;;5031380;28;20030;-65
2021/05/26 04:09:32;;;;;;;5.78;2.60;;;10.00;62.10;;;;;;5016530;28;20391;-65
2021/05/26 04:11:58;;;;;;;5.25;2.40;;;10.00;62.10;;;;;;5015898;28;20105;-66
2021/05/26 04:14:24;;;;;;;6.15;2.38;;;10.10;62.20;;;;;;5015699;28;20113;-66
2021/05/26 04:16:49;;;;;;;3.33;1.85;;;10.10;62.20;;;;;;5015739;28;20375;-65
2021/05/26 04:19:15;;;;;;;5.68;2.63;;;10.20;62.30;;;;;;5015806;28;20026;-66
2021/05/26 04:21:41;;;;;;;3.55;1.92;;;10.20;62.30;;;;;;5023864;28;20109;-65
2021/05/26 04:24:07;;;;;;;4.68;2.80;;;10.30;62.30;;;;;;5035293;28;20049;-65
2021/05/26 04:26:33;;;;;;;4.57;2.90;;;10.40;62.30;;;;;;5034263;28;20096;-65
2021/05/26 04:28:59;;;;;;;5.40;2.20;;;10.40;62.40;;;;;;5033702;28;20539;-65
2021/05/26 04:31:25;;;;;;;4.28;2.13;;;10.50;62.50;;;;;;5035269;28;20080;-65
2021/05/26 04:33:50;;;;;;;8.18;2.97;;;10.60;62.60;;;;;;5035209;28;20116;-65
2021/05/26 04:36:16;;;;;;;6.05;3.10;;;10.60;62.70;;;;;;5027037;28;20022;-66
2021/05/26 04:38:42;;;;;;;7.40;3.35;;;10.70;62.70;;;;;;5015413;28;20033;-65
2021/05/26 04:41:08;;;;;;;10.77;4.28;;;10.80;62.60;;;;;;5015275;28;20467;-65
2021/05/26 04:43:34;;;;;;;14.40;4.53;;;10.80;62.40;;;;;;5015029;28;20049;-66
2021/05/26 04:46:04;;;;;;;11.52;3.97;;;10.90;62.20;;;;;;5015350;28;20446;-65
2021/05/26 04:48:31;;;;;;;6.78;3.30;;;11.00;62.00;;;;;;5015203;28;20360;-66
2021/05/26 04:50:56;;;;;;;6.13;3.40;;;11.10;61.80;;;;;;5015202;28;20053;-65
2021/05/26 04:53:22;;;;;;;7.65;3.25;;;11.20;61.40;;;;;;5014916;28;20046;-65
2021/05/26 04:55:48;;;;;;;5.75;2.75;;;11.20;61.00;;;;;;5014920;28;20018;-65
2021/05/26 04:58:14;;;;;;;7.15;2.20;;;11.30;60.80;;;;;;5014807;28;20045;-65
2021/05/26 05:00:40;;;;;;;9.85;2.85;;;11.40;60.60;;;;;;5014873;28;20026;-65
2021/05/26 05:03:07;;;;;;;9.65;2.90;;;11.50;60.50;;;;;;5014894;28;20026;-65
2021/05/26 05:05:33;;;;;;;7.25;2.30;;;11.50;60.10;;;;;;5014937;28;20018;-65
2021/05/26 05:08:02;;;;;;;5.35;2.03;;;11.60;59.90;;;;;;5014808;28;20447;-65
2021/05/26 05:10:28;;;;;;;3.47;2.03;;;11.70;59.80;;;;;;5014711;28;20022;-65
2021/05/26 05:12:54;;;;;;;3.58;1.90;;;11.80;59.50;;;;;;5014721;28;20076;-65
2021/05/26 05:15:20;;;;;;;3.90;1.92;;;11.90;59.50;;;;;;5014815;28;20026;-65
2021/05/26 05:17:49;;;;;;;8.75;1.75;;;12.00;59.50;;;;;;5014795;28;20026;-66
2021/05/26 05:20:17;;;;;;;4.25;1.80;;;12.10;59.40;;;;;;5022232;28;20058;-65
2021/05/26 05:22:42;;;;;;;6.22;1.77;;;12.20;59.40;;;;;;5015655;28;20022;-65
2021/05/26 05:25:10;;;;;;;3.97;2.00;;;12.30;59.40;;;;;;5014241;28;20029;-65
2021/05/26 05:27:36;;;;;;;8.52;2.35;;;12.40;59.40;;;;;;5014509;28;20371;-65
2021/05/26 05:30:04;;;;;;;4.85;1.80;;;12.60;59.20;;;;;;5014194;28;20053;-65
2021/05/26 05:32:30;;;;;;;6.75;2.67;;;12.70;59.10;;;;;;5013981;28;20480;-65
2021/05/26 05:34:56;;;;;;;6.65;2.28;;;12.80;59.30;;;;;;5013831;28;20036;-65
2021/05/26 05:37:21;;;;;;;6.25;2.47;;;12.90;58.30;;;;;;5012249;28;20022;-65
2021/05/26 05:39:47;;;;;;;7.22;2.97;;;13.10;58.00;;;;;;5028853;28;20026;-65
2021/05/26 05:42:13;;;;;;;7.38;3.78;;;13.10;57.70;;;;;;5013827;28;20205;-65
2021/05/26 05:44:39;;;;;;;7.35;2.97;;;13.30;57.60;;;;;;5013671;28;20025;-65
2021/05/26 05:47:04;;;;;;;6.25;2.60;;;13.40;57.10;;;;;;5013604;28;20050;-65
2021/05/26 05:49:30;;;;;;;17.10;3.22;;;13.50;56.80;;;;;;5013597;28;20030;-65
2021/05/26 05:51:56;;;;;;;3.92;2.17;;;13.60;56.10;;;;;;5013330;28;20176;-66
2021/05/26 05:54:22;;;;;;;9.18;2.15;;;13.70;56.20;;;;;;5013722;28;20025;-65
2021/05/26 05:56:47;;;;;;;5.22;2.05;;;13.80;55.70;;;;;;5013604;28;20014;-66
2021/05/26 05:59:13;;;;;;;7.65;2.30;;;13.90;55.50;;;;;;5013516;28;20100;-65
2021/05/26 06:01:39;;;;;;;5.03;1.95;;;14.00;55.10;;;;;;5013477;28;20041;-66
2021/05/26 06:04:05;;;;;;;6.72;2.55;;;14.00;54.60;;;;;;5013474;28;20036;-66
2021/05/26 06:06:31;;;;;;;5.28;2.22;;;14.10;54.30;;;;;;5013629;28;20034;-65
2021/05/26 06:08:56;;;;;;;6.80;1.92;;;14.10;54.40;;;;;;5013304;28;20064;-65
2021/05/26 06:11:22;;;;;;;12.23;2.17;;;14.20;54.30;;;;;;5013547;28;20100;-66
2021/05/26 06:13:49;;;;;;;7.47;2.20;;;14.30;54.10;;;;;;5013181;28;20026;-66
2021/05/26 06:16:16;;;;;;;5.50;2.58;;;14.40;53.80;;;;;;5013336;28;20022;-66
2021/05/26 06:18:42;;;;;;;6.32;2.63;;;14.40;53.30;;;;;;5013329;28;20386;-65
2021/05/26 06:21:08;;;;;;;4.68;2.80;;;14.50;53.50;;;;;;5027945;28;20029;-66
2021/05/26 06:23:34;;;;;;;5.05;2.75;;;14.60;53.10;;;;;;5016227;28;20026;-66
2021/05/26 06:26:01;;;;;;;7.70;3.53;;;14.70;53.30;;;;;;5012126;28;20021;-65
2021/05/26 06:28:27;;;;;;;9.23;4.22;;;14.70;52.40;;;;;;5011885;28;20538;-66
2021/05/26 06:30:53;;;;;;;9.75;3.65;;;14.80;52.10;;;;;;5016864;28;20025;-66
2021/05/26 06:33:19;;;;;;;9.25;3.85;;;14.90;52.20;;;;;;5025246;28;20593;-65
2021/05/26 06:35:44;;;;;;;9.02;3.50;;;14.90;51.70;;;;;;5032148;28;20021;-66
2021/05/26 06:38:10;;;;;;;4.68;3.00;;;15.00;51.50;;;;;;5049238;28;20108;-65
2021/05/26 06:40:36;;;;;;;5.22;2.50;;;15.10;51.30;;;;;;5052516;28;20017;-66
2021/05/26 06:43:01;;;;;;;6.15;2.50;;;15.20;51.30;;;;;;5052404;28;20029;-65
2021/05/26 06:45:27;;;;;;;6.88;2.20;;;15.30;51.50;;;;;;5052691;28;20021;-66
2021/05/26 06:47:53;;;;;;;4.35;1.85;;;15.40;50.90;;;;;;5052703;28;20021;-66
2021/05/26 06:50:19;;;;;;;3.65;1.83;;;15.40;50.80;;;;;;5035952;28;20091;-66
2021/05/26 06:52:44;;;;;;;8.20;2.28;;;15.50;51.20;;;;;;5035660;28;20041;-65
2021/05/26 06:55:10;;;;;;;7.18;1.75;;;15.60;50.30;;;;;;5036842;28;20614;-66
2021/05/26 06:57:36;;;;;;;6.15;2.15;;;15.70;50.40;;;;;;5036749;28;20109;-66
2021/05/26 07:00:04;;;;;;;4.18;1.85;;;15.70;49.70;;;;;;5034914;28;20058;-66
2021/05/26 07:02:29;;;;;;;6.43;1.77;;;15.80;49.60;;;;;;5016689;28;20018;-66
2021/05/26 07:04:55;;;;;;;8.10;2.35;;;15.90;49.80;;;;;;5016782;28;20026;-66
2021/05/26 07:07:21;;;;;;;3.03;2.00;;;15.90;49.60;;;;;;5016793;28;20034;-65
2021/05/26 07:09:47;;;;;;;3.35;1.75;;;16.00;49.50;;;;;;5015485;28;20022;-66
2021/05/26 07:12:12;;;;;;;4.10;2.15;;;16.00;49.50;;;;;;5026120;28;20537;-66
2021/05/26 07:14:39;;;;;;;9.68;2.17;;;16.00;49.20;;;;;;5028727;28;20022;-65
2021/05/26 07:17:05;;;;;;;4.32;1.58;;;16.10;47.90;;;;;;5016614;28;20032;-66
2021/05/26 07:19:31;;;;;;;1.98;1.45;;;16.10;48.20;;;;;;5015048;28;20030;-66
2021/05/26 07:21:56;;;;;;;4.88;1.13;;;16.20;48.10;;;;;;5017754;28;20034;-65
2021/05/26 07:24:22;;;;;;;7.65;1.65;;;16.20;46.90;;;;;;5027319;28;20026;-66
2021/05/26 07:26:48;;;;;;;4.28;1.35;;;16.20;47.00;;;;;;5025430;28;20056;-66
2021/05/26 07:29:13;;;;;;;3.63;1.20;;;16.30;47.40;;;;;;5017139;28;20033;-65
2021/05/26 07:31:41;;;;;;;4.63;1.25;;;16.40;47.60;;;;;;5015714;28;20125;-66
2021/05/26 07:34:07;;;;;;;4.28;1.42;;;16.40;46.90;;;;;;5015956;28;20044;-66
2021/05/26 07:36:33;;;;;;;4.20;1.20;;;16.50;47.20;;;;;;5014910;28;20018;-66
2021/05/26 07:39:00;;;;;;;3.17;1.17;;;16.60;46.90;;;;;;5016176;28;20022;-66
2021/05/26 07:41:25;;;;;;;4.10;1.30;;;16.60;46.40;;;;;;5029287;28;20031;-66
2021/05/26 07:43:51;;;;;;;4.10;1.00;;;16.70;46.70;;;;;;5034064;28;20063;-66
2021/05/26 07:46:17;;;;;;;3.50;1.55;;;16.80;46.70;;;;;;5034679;28;20033;-66
2021/05/26 07:48:43;;;;;;;4.72;1.90;;;16.90;46.50;;;;;;5024434;28;20026;-66
2021/05/26 07:51:09;;;;;;;2.10;1.30;;;17.10;46.30;;;;;;5035281;28;20025;-66
2021/05/26 07:53:35;;;;;;;2.10;1.38;;;17.20;46.30;;;;;;5035344;28;20515;-65
2021/05/26 07:56:02;;;;;;;4.97;1.63;;;17.30;46.20;;;;;;5026273;28;20033;-65
2021/05/26 07:58:28;;;;;;;3.15;1.75;;;17.40;45.90;;;;;;5018771;28;20480;-65
2021/05/26 08:00:53;;;;;;;11.25;2.90;;;17.50;45.40;;;;;;5043859;28;20166;-65
2021/05/26 08:03:19;;;;;;;6.10;2.40;;;17.50;45.40;;;;;;5027370;28;20025;-65
2021/05/26 08:05:45;;;;;;;5.80;2.97;;;17.60;45.60;;;;;;5030672;28;20026;-65
2021/05/26 08:08:11;;;;;;;10.15;3.55;;;17.70;44.60;;;;;;5028796;28;20041;-65
2021/05/26 08:10:37;;;;;;;9.23;3.90;;;17.70;44.50;;;;;;5029385;28;20041;-65
2021/05/26 08:13:03;;;;;;;7.50;3.67;;;17.70;44.10;;;;;;5034326;28;20029;-66
2021/05/26 08:15:28;;;;;;;11.45;3.72;;;17.80;44.40;;;;;;5034862;28;20025;-66
2021/05/26 08:17:54;;;;;;;5.57;2.80;;;17.80;44.80;;;;;;5033606;28;20475;-65
2021/05/26 08:20:22;;;;;;;8.27;3.70;;;17.90;45.30;;;;;;5035026;28;20088;-65
2021/05/26 08:22:49;;;;;;;10.15;3.75;;;17.90;44.40;;;;;;5027021;28;20151;-66
2021/05/26 08:25:15;;;;;;;7.32;3.42;;;17.90;43.70;;;;;;5017708;28;20115;-66
2021/05/26 08:27:41;;;;;;;5.93;2.72;;;18.00;44.60;;;;;;5034061;28;20049;-65
2021/05/26 08:30:07;;;;;;;7.63;2.78;;;18.00;44.00;;;;;;5032997;28;20103;-66
2021/05/26 08:32:33;;;;;;;8.60;2.85;;;18.10;44.40;;;;;;5028027;28;20022;-65
2021/05/26 08:34:59;;;;;;;4.35;2.50;;;18.20;44.50;;;;;;5014865;28;20030;-66
2021/05/26 08:37:25;;;;;;;5.85;2.60;;;18.20;44.20;;;;;;5015025;28;20025;-67
2021/05/26 08:39:51;;;;;;;6.05;2.60;;;18.30;43.60;;;;;;5027423;28;20075;-66
2021/05/26 08:42:17;;;;;;;11.90;2.95;;;18.40;43.80;;;;;;5029858;28;20022;-66
2021/05/26 08:44:43;;;;;;;10.43;3.47;;;18.50;43.50;;;;;;5025224;28;20030;-66
2021/05/26 08:47:16;;;;;;;5.82;2.75;;;18.50;42.30;;;;;;5014662;28;20399;-65
2021/05/26 08:49:46;;;;;;;4.85;2.50;;;18.50;43.10;;;;;;5014778;28;20033;-66
2021/05/26 08:52:16;;;;;;;8.73;3.58;;;18.60;42.70;;;;;;5017912;28;20073;-66
2021/05/26 08:54:47;;;;;;;6.90;2.67;;;18.70;43.00;;;;;;5029781;28;20033;-66
2021/05/26 08:57:13;;;;;;;5.95;2.45;;;18.80;42.80;;;;;;5030414;28;20018;-66
2021/05/26 08:59:39;;;;;;;6.28;2.47;;;18.90;42.30;;;;;;5015552;28;20076;-67
2021/05/26 09:02:12;;;;;;;10.48;2.80;;;19.00;41.90;;;;;;5016745;28;20083;-64
2021/05/26 09:04:39;;;;;;;8.23;3.22;;;19.10;41.40;;;;;;5013414;28;20053;-64
2021/05/26 09:07:34;;;;;;;7.53;2.20;;;19.20;40.50;;;;;;5019687;28;20037;-71
2021/05/26 09:10:03;;;;;;;3.63;1.95;;;19.30;41.50;;;;;;5041514;28;20041;-66
2021/05/26 09:12:39;;;;;;;6.30;2.45;;;19.30;40.20;;;;;;5051479;28;20078;-66
2021/05/26 09:15:20;;;;;;;8.25;3.33;;;19.40;40.40;;;;;;5028642;28;20425;-64
2021/05/26 09:17:51;;;;;;;5.10;2.20;;;19.50;39.60;;;;;;5031960;28;20037;-64
2021/05/26 09:20:28;;;;;;;3.55;1.70;;;19.50;39.80;;;;;;5031871;28;20065;-64
2021/05/26 09:23:16;;;;;;;7.80;2.60;;;19.60;38.20;;;;;;5031686;28;20037;-64
2021/05/26 09:25:45;;;;;;;10.02;2.28;;;19.60;38.80;;;;;;5031818;28;20116;-64
2021/05/26 09:28:18;;;;;;;6.00;2.50;;;19.60;37.90;;;;;;5031683;28;20092;-64
2021/05/26 09:30:45;;;;;;;3.63;1.48;;;19.70;38.70;;;;;;5034614;28;20108;-64
2021/05/26 09:33:41;;;;;;;6.05;2.80;;;19.70;36.70;;;;;;5034862;28;20450;-64
2021/05/26 09:36:26;;;;;;;2.85;1.60;;;19.80;37.50;;;;;;4991943;28;20062;-64
2021/05/26 09:39:03;;;;;;;1.73;0.77;;;19.90;35.90;;;;;;4992146;28;20034;-66
2021/05/26 09:41:31;;;;;;;0.73;0.52;;;19.90;35.70;;;;;;4992221;28;20026;-64
2021/05/26 09:43:59;;;;;;;5.38;2.05;;;20.00;35.30;;;;;;4992018;28;20081;-65
2021/05/26 09:46:34;;;;;;;7.45;3.40;;;20.10;36.30;;;;;;4972123;28;20485;-64
2021/05/26 09:49:02;;;;;;;3.47;1.35;;;20.10;35.90;;;;;;4953483;29;20031;-64
2021/05/26 09:51:29;;;;;;;1.38;0.50;;;20.20;35.50;;;;;;4953290;29;20473;-64
2021/05/26 09:54:07;;;;;;;3.08;1.05;;;20.20;33.20;;;;;;4953284;29;20046;-64
2021/05/26 09:56:33;;;;;;;1.73;0.45;;;20.30;31.70;;;;;;4953113;29;20038;-64
2021/05/26 09:59:02;;;;;;;2.53;0.70;;;20.30;32.00;;;;;;4953022;29;20039;-64
2021/05/26 10:01:29;;;;;;;1.60;0.52;;;20.30;30.40;;;;;;4964978;28;20389;-64
2021/05/26 10:03:55;;;;;;;2.92;0.55;;;20.30;31.60;;;;;;4972427;28;20033;-64
2021/05/26 10:06:24;;;;;;;2.78;1.00;;;20.40;31.40;;;;;;4972361;28;20034;-64
2021/05/26 10:08:50;;;;;;;1.77;0.55;;;20.40;29.90;;;;;;4969090;28;20062;-64
2021/05/26 10:11:16;;;;;;;1.45;0.40;;;20.40;30.20;;;;;;4953446;28;20060;-64
2021/05/26 10:13:46;;;;;;;2.05;0.50;;;20.40;31.00;;;;;;5013258;28;20037;-64
2021/05/26 10:16:17;;;;;;;2.03;0.52;;;20.40;31.50;;;;;;5013509;28;20030;-64
2021/05/26 10:18:45;;;;;;;0.88;0.40;;;20.50;31.80;;;;;;5013475;28;20029;-64
2021/05/26 10:21:15;;;;;;;1.83;0.70;;;20.50;31.40;;;;;;5013366;28;20054;-64
2021/05/26 10:23:42;;;;;;;1.80;0.50;;;20.60;31.30;;;;;;5017143;28;20091;-64
2021/05/26 10:26:08;;;;;;;1.90;0.70;;;20.60;31.30;;;;;;5012746;28;20022;-64
2021/05/26 10:28:34;;;;;;;2.60;0.70;;;20.70;32.10;;;;;;5011992;28;20022;-64
2021/05/26 10:31:06;;;;;;;1.23;0.40;;;20.70;30.10;;;;;;5013122;28;20026;-64
2021/05/26 10:33:44;;;;;;;3.47;0.60;;;20.70;29.50;;;;;;5012437;28;20161;-64
2021/05/26 10:36:11;;;;;;;2.00;0.70;;;20.70;28.90;;;;;;5013075;28;20033;-64
2021/05/26 10:39:00;;;;;;;1.55;0.50;;;20.80;28.10;;;;;;5012886;28;20556;-64
2021/05/26 10:41:49;;;;;;;2.40;0.70;;;20.80;28.80;;;;;;5028114;28;20072;-64
2021/05/26 10:44:15;;;;;;;3.50;0.57;;;20.90;29.10;;;;;;5017485;28;20045;-66
2021/05/26 10:46:43;;;;;;;2.45;0.98;;;21.00;29.50;;;;;;5012836;28;20029;-64
2021/05/26 10:49:11;;;;;;;2.90;0.93;;;21.00;28.60;;;;;;5012888;28;20098;-64
2021/05/26 10:51:52;;;;;;;0.73;0.40;;;21.10;28.50;;;;;;5012678;28;20033;-67
2021/05/26 10:54:39;;;;;;;1.88;0.60;;;21.20;29.10;;;;;;5012809;28;20107;-64
2021/05/26 10:57:07;;;;;;;2.42;0.90;;;21.30;29.20;;;;;;5012504;28;20022;-67
2021/05/26 10:59:33;;;;;;;1.58;0.52;;;21.50;28.80;;;;;;5012598;28;20014;-64
2021/05/26 11:02:02;;;;;;;3.47;0.80;;;21.50;28.90;;;;;;5023619;28;20107;-63
2021/05/26 11:04:28;;;;;;;2.15;0.80;;;21.60;29.50;;;;;;5031302;28;20379;-64
2021/05/26 11:07:21;;;;;;;2.67;1.00;;;21.70;29.30;;;;;;5032582;28;20027;-64
2021/05/26 11:09:56;;;;;;;7.90;1.80;;;21.70;28.90;;;;;;5032583;28;20052;-64
2021/05/26 11:12:22;;;;;;;2.38;1.20;;;21.80;28.40;;;;;;5032573;28;20125;-64
2021/05/26 11:14:55;;;;;;;1.30;0.77;;;21.80;28.60;;;;;;5032511;28;20523;-64
2021/05/26 11:17:26;;;;;;;4.72;0.90;;;21.80;28.40;;;;;;5032404;28;20025;-64
2021/05/26 11:20:05;;;;;;;3.28;1.80;;;21.80;28.90;;;;;;5031187;28;20479;-65
2021/05/26 11:22:31;;;;;;;2.78;1.10;;;21.90;29.80;;;;;;5032268;28;20109;-64
2021/05/26 11:24:57;;;;;;;2.65;1.15;;;22.00;29.40;;;;;;5032189;28;20450;-64
2021/05/26 11:27:26;;;;;;;3.50;1.00;;;22.10;29.10;;;;;;5032339;28;20030;-66
2021/05/26 11:29:55;;;;;;;3.95;1.40;;;22.10;28.30;;;;;;5032106;28;20033;-66
2021/05/26 11:32:23;;;;;;;2.67;1.25;;;22.10;28.70;;;;;;5013895;28;20113;-64
2021/05/26 11:34:51;;;;;;;4.45;2.25;;;22.10;28.90;;;;;;5012409;28;20097;-64
2021/05/26 11:37:31;;;;;;;6.53;1.67;;;22.20;29.40;;;;;;5012840;28;20018;-64
2021/05/26 11:39:59;;;;;;;7.68;1.70;;;22.30;28.70;;;;;;5016005;28;20073;-64
2021/05/26 11:42:29;;;;;;;4.25;1.10;;;22.30;28.60;;;;;;5016000;28;20018;-64
2021/05/26 11:44:59;;;;;;;1.35;0.80;;;22.30;28.50;;;;;;5015676;28;20031;-64
2021/05/26 11:47:39;;;;;;;8.07;1.40;;;22.40;28.50;;;;;;5015475;28;20372;-64
2021/05/26 11:50:17;;;;;;;1.92;0.90;;;22.40;27.90;;;;;;5015499;28;20037;-64
2021/05/26 11:52:47;;;;;;;4.82;1.20;;;22.50;27.80;;;;;;5030253;28;20042;-64
2021/05/26 11:55:14;;;;;;;1.67;0.68;;;22.50;27.50;;;;;;5016303;28;20468;-64
2021/05/26 11:57:42;;;;;;;3.60;0.95;;;22.50;27.60;;;;;;5015798;28;20698;-64
2021/05/26 12:00:18;;;;;;;2.80;0.98;;;22.60;27.50;;;;;;5016055;28;20068;-64
2021/05/26 12:03:02;;;;;;;1.67;0.85;;;22.50;27.40;;;;;;5015485;28;20022;-65
2021/05/26 12:05:37;;;;;;;2.00;0.77;;;22.60;28.00;;;;;;5015642;28;20014;-65
2021/05/26 12:08:11;;;;;;;5.38;1.00;;;22.60;27.90;;;;;;5015568;28;20056;-65
2021/05/26 12:10:37;;;;;;;;;;;22.60;27.80;;;;;;5031115;28;20395;-64
2021/05/26 12:13:03;;;;;;;3.45;1.00;;;22.80;29.10;;;;;;5015467;28;19910;-65
2021/05/26 12:15:29;;;;;;;2.15;0.80;;;22.80;28.00;;;;;;5015426;28;20025;-64
2021/05/26 12:17:56;;;;;;;5.22;1.00;;;22.80;27.50;;;;;;5015208;28;20030;-64
2021/05/26 12:20:22;;;;;;;3.47;0.70;;;22.80;27.50;;;;;;5030264;28;20109;-64
2021/05/26 12:22:50;;;;;;;2.25;0.77;;;22.90;27.40;;;;;;5034868;28;20140;-64
2021/05/26 12:25:17;;;;;;;1.13;0.60;;;22.80;27.30;;;;;;5028020;28;20116;-64
2021/05/26 12:27:45;;;;;;;2.45;0.70;;;22.90;27.30;;;;;;5034762;28;20026;-65
2021/05/26 12:30:12;;;;;;;2.33;0.93;;;22.90;27.10;;;;;;5033576;28;20482;-64
2021/05/26 12:32:38;;;;;;;1.75;0.50;;;22.90;27.20;;;;;;5034648;28;20029;-65
2021/05/26 12:35:10;;;;;;;2.45;1.23;;;22.90;27.60;;;;;;5034517;28;20036;-64
2021/05/26 12:37:40;;;;;;;1.00;0.50;;;22.90;27.20;;;;;;5034587;28;20430;-64
2021/05/26 12:40:07;;;;;;;1.52;0.75;;;22.90;27.40;;;;;;5034556;28;20048;-64
2021/05/26 12:42:41;;;;;;;1.20;0.50;;;22.90;27.40;;;;;;5033416;28;20021;-64
2021/05/26 12:45:26;;;;;;;1.35;0.60;;;23.00;28.00;;;;;;5034495;28;20021;-64
2021/05/26 12:47:56;;;;;;;1.98;0.70;;;23.00;27.80;;;;;;5034270;28;20025;-65
2021/05/26 12:50:25;;;;;;;1.88;0.82;;;23.10;27.90;;;;;;5021092;28;20030;-64